sensor_id;sensor_type;location;lat;lon;timestamp;P1;durP1;ratioP1;P2;durP2;ratioP2
16119;SDS011;12670;53.502;10.252;2022-10-12T00:00:09;11.50;;;3.00;;
16119;SDS011;12670;53.502;10.252;2022-10-12T00:03:14;8.60;;;2.90;;
16119;SDS011;12670;53.502;10.252;2022-10-12T00:06:17;31.37;;;3.73;;
16119;SDS011;12670;53.502;10.252;2022-10-12T00:09:21;18.70;;;3.00;;
16119;SDS011;12670;53.502;10.252;2022-10-12T00:12:23;10.77;;;2.80;;
16119;SDS011;12670;53.502;10.252;2022-10-12T00:15:26;20.67;;;3.07;;
16119;SDS011;12670;53.502;10.252;2022-10-12T00:18:30;9.33;;;3.33;;
16119;SDS011;12670;53.502;10.252;2022-10-12T00:21:33;17.83;;;3.90;;
16119;SDS011;12670;53.502;10.252;2022-10-12T00:24:35;17.63;;;3.37;;
16119;SDS011;12670;53.502;10.252;2022-10-12T00:27:43;7.73;;;2.80;;
16119;SDS011;12670;53.502;10.252;2022-10-12T00:30:46;9.07;;;2.63;;
16119;SDS011;12670;53.502;10.252;2022-10-12T00:33:50;13.20;;;3.07;;
16119;SDS011;12670;53.502;10.252;2022-10-12T00:36:53;9.20;;;3.57;;
16119;SDS011;12670;53.502;10.252;2022-10-12T00:39:56;15.50;;;3.20;;
16119;SDS011;12670;53.502;10.252;2022-10-12T00:42:59;15.43;;;3.20;;
16119;SDS011;12670;53.502;10.252;2022-10-12T00:46:02;12.37;;;3.43;;
16119;SDS011;12670;53.502;10.252;2022-10-12T00:49:09;9.07;;;3.57;;
16119;SDS011;12670;53.502;10.252;2022-10-12T00:52:18;12.10;;;3.13;;
16119;SDS011;12670;53.502;10.252;2022-10-12T00:55:25;9.63;;;2.67;;
16119;SDS011;12670;53.502;10.252;2022-10-12T00:58:31;21.17;;;3.20;;
16119;SDS011;12670;53.502;10.252;2022-10-12T01:01:34;10.73;;;3.83;;
16119;SDS011;12670;53.502;10.252;2022-10-12T01:04:40;9.20;;;2.73;;
16119;SDS011;12670;53.502;10.252;2022-10-12T01:07:44;15.60;;;3.20;;
16119;SDS011;12670;53.502;10.252;2022-10-12T01:10:47;12.30;;;3.20;;
16119;SDS011;12670;53.502;10.252;2022-10-12T01:13:49;12.57;;;3.37;;
16119;SDS011;12670;53.502;10.252;2022-10-12T01:16:53;9.37;;;3.07;;
16119;SDS011;12670;53.502;10.252;2022-10-12T01:20:09;13.63;;;3.10;;
16119;SDS011;12670;53.502;10.252;2022-10-12T01:27:12;15.93;;;3.50;;
16119;SDS011;12670;53.502;10.252;2022-10-12T01:30:27;14.63;;;3.10;;
16119;SDS011;12670;53.502;10.252;2022-10-12T01:33:35;11.80;;;2.80;;
16119;SDS011;12670;53.502;10.252;2022-10-12T01:36:41;8.40;;;3.30;;
16119;SDS011;12670;53.502;10.252;2022-10-12T01:39:48;7.73;;;2.90;;
16119;SDS011;12670;53.502;10.252;2022-10-12T01:42:54;11.77;;;2.93;;
16119;SDS011;12670;53.502;10.252;2022-10-12T01:46:04;12.63;;;2.90;;
16119;SDS011;12670;53.502;10.252;2022-10-12T01:49:08;6.33;;;2.47;;
16119;SDS011;12670;53.502;10.252;2022-10-12T01:52:19;6.27;;;2.13;;
16119;SDS011;12670;53.502;10.252;2022-10-12T01:55:30;7.87;;;2.27;;
16119;SDS011;12670;53.502;10.252;2022-10-12T01:58:43;7.33;;;2.40;;
16119;SDS011;12670;53.502;10.252;2022-10-12T02:01:59;18.57;;;3.10;;
16119;SDS011;12670;53.502;10.252;2022-10-12T02:05:09;6.93;;;2.97;;
16119;SDS011;12670;53.502;10.252;2022-10-12T02:08:17;10.57;;;2.80;;
16119;SDS011;12670;53.502;10.252;2022-10-12T02:11:31;12.40;;;3.50;;
16119;SDS011;12670;53.502;10.252;2022-10-12T02:14:39;12.60;;;3.07;;
16119;SDS011;12670;53.502;10.252;2022-10-12T02:17:48;14.23;;;2.60;;
16119;SDS011;12670;53.502;10.252;2022-10-12T02:20:53;14.67;;;3.00;;
16119;SDS011;12670;53.502;10.252;2022-10-12T02:24:01;10.63;;;2.60;;
16119;SDS011;12670;53.502;10.252;2022-10-12T02:27:07;7.07;;;2.40;;
16119;SDS011;12670;53.502;10.252;2022-10-12T02:30:12;8.83;;;2.60;;
16119;SDS011;12670;53.502;10.252;2022-10-12T02:33:17;7.77;;;2.90;;
16119;SDS011;12670;53.502;10.252;2022-10-12T02:36:26;10.67;;;2.90;;
16119;SDS011;12670;53.502;10.252;2022-10-12T02:39:37;8.30;;;2.90;;
16119;SDS011;12670;53.502;10.252;2022-10-12T02:42:45;9.20;;;2.93;;
16119;SDS011;12670;53.502;10.252;2022-10-12T02:46:12;5.27;;;2.77;;
16119;SDS011;12670;53.502;10.252;2022-10-12T02:49:19;18.07;;;3.37;;
16119;SDS011;12670;53.502;10.252;2022-10-12T02:52:26;6.90;;;2.50;;
16119;SDS011;12670;53.502;10.252;2022-10-12T02:55:29;9.47;;;2.67;;
16119;SDS011;12670;53.502;10.252;2022-10-12T02:58:31;14.00;;;2.43;;
16119;SDS011;12670;53.502;10.252;2022-10-12T03:01:34;8.17;;;2.37;;
16119;SDS011;12670;53.502;10.252;2022-10-12T03:04:38;13.17;;;2.70;;
16119;SDS011;12670;53.502;10.252;2022-10-12T03:07:41;8.67;;;2.40;;
16119;SDS011;12670;53.502;10.252;2022-10-12T03:10:43;26.27;;;3.67;;
16119;SDS011;12670;53.502;10.252;2022-10-12T03:13:46;9.70;;;2.50;;
16119;SDS011;12670;53.502;10.252;2022-10-12T03:16:48;5.83;;;2.30;;
16119;SDS011;12670;53.502;10.252;2022-10-12T03:19:52;7.43;;;2.70;;
16119;SDS011;12670;53.502;10.252;2022-10-12T03:22:54;8.23;;;2.70;;
16119;SDS011;12670;53.502;10.252;2022-10-12T03:25:57;4.27;;;2.10;;
16119;SDS011;12670;53.502;10.252;2022-10-12T03:28:59;9.20;;;2.67;;
16119;SDS011;12670;53.502;10.252;2022-10-12T03:32:02;9.53;;;2.77;;
16119;SDS011;12670;53.502;10.252;2022-10-12T03:35:07;7.00;;;2.43;;
16119;SDS011;12670;53.502;10.252;2022-10-12T03:38:10;8.37;;;2.67;;
16119;SDS011;12670;53.502;10.252;2022-10-12T03:41:12;7.40;;;2.50;;
16119;SDS011;12670;53.502;10.252;2022-10-12T03:44:15;7.37;;;2.50;;
16119;SDS011;12670;53.502;10.252;2022-10-12T03:47:17;8.90;;;2.57;;
16119;SDS011;12670;53.502;10.252;2022-10-12T03:50:21;8.53;;;2.40;;
16119;SDS011;12670;53.502;10.252;2022-10-12T03:53:24;10.10;;;2.70;;
16119;SDS011;12670;53.502;10.252;2022-10-12T03:56:26;10.30;;;2.70;;
16119;SDS011;12670;53.502;10.252;2022-10-12T03:59:29;7.67;;;2.60;;
16119;SDS011;12670;53.502;10.252;2022-10-12T04:02:31;7.63;;;2.33;;
16119;SDS011;12670;53.502;10.252;2022-10-12T04:05:35;15.97;;;2.57;;
16119;SDS011;12670;53.502;10.252;2022-10-12T04:08:38;12.60;;;2.60;;
16119;SDS011;12670;53.502;10.252;2022-10-12T04:11:40;9.83;;;2.40;;
16119;SDS011;12670;53.502;10.252;2022-10-12T04:14:43;6.77;;;2.63;;
16119;SDS011;12670;53.502;10.252;2022-10-12T04:17:45;11.47;;;2.50;;
16119;SDS011;12670;53.502;10.252;2022-10-12T04:20:49;13.07;;;3.00;;
16119;SDS011;12670;53.502;10.252;2022-10-12T04:23:52;7.77;;;2.60;;
16119;SDS011;12670;53.502;10.252;2022-10-12T04:26:54;9.90;;;3.10;;
16119;SDS011;12670;53.502;10.252;2022-10-12T04:29:57;12.27;;;2.90;;
16119;SDS011;12670;53.502;10.252;2022-10-12T04:32:59;10.93;;;3.00;;
16119;SDS011;12670;53.502;10.252;2022-10-12T04:36:03;7.03;;;2.50;;
16119;SDS011;12670;53.502;10.252;2022-10-12T04:39:06;11.70;;;2.90;;
16119;SDS011;12670;53.502;10.252;2022-10-12T04:42:09;14.63;;;2.90;;
16119;SDS011;12670;53.502;10.252;2022-10-12T04:45:12;11.83;;;2.73;;
16119;SDS011;12670;53.502;10.252;2022-10-12T04:48:14;16.30;;;3.20;;
16119;SDS011;12670;53.502;10.252;2022-10-12T04:51:18;15.03;;;2.80;;
16119;SDS011;12670;53.502;10.252;2022-10-12T04:54:21;8.10;;;2.73;;
16119;SDS011;12670;53.502;10.252;2022-10-12T04:57:23;12.97;;;3.00;;
16119;SDS011;12670;53.502;10.252;2022-10-12T05:00:26;16.80;;;2.57;;
16119;SDS011;12670;53.502;10.252;2022-10-12T05:03:28;13.17;;;2.70;;
16119;SDS011;12670;53.502;10.252;2022-10-12T05:06:32;18.20;;;3.40;;
16119;SDS011;12670;53.502;10.252;2022-10-12T05:09:35;22.73;;;3.07;;
16119;SDS011;12670;53.502;10.252;2022-10-12T05:12:37;12.13;;;2.83;;
16119;SDS011;12670;53.502;10.252;2022-10-12T05:15:40;15.47;;;2.60;;
16119;SDS011;12670;53.502;10.252;2022-10-12T05:18:43;11.57;;;2.60;;
16119;SDS011;12670;53.502;10.252;2022-10-12T05:21:47;17.40;;;2.87;;
16119;SDS011;12670;53.502;10.252;2022-10-12T05:24:50;11.70;;;2.90;;
16119;SDS011;12670;53.502;10.252;2022-10-12T05:27:54;9.87;;;3.10;;
16119;SDS011;12670;53.502;10.252;2022-10-12T05:30:57;15.10;;;4.27;;
16119;SDS011;12670;53.502;10.252;2022-10-12T05:33:59;17.03;;;4.27;;
16119;SDS011;12670;53.502;10.252;2022-10-12T05:37:03;25.07;;;5.37;;
16119;SDS011;12670;53.502;10.252;2022-10-12T05:40:06;23.63;;;4.83;;
16119;SDS011;12670;53.502;10.252;2022-10-12T05:43:09;15.00;;;4.27;;
16119;SDS011;12670;53.502;10.252;2022-10-12T05:46:11;10.83;;;3.60;;
16119;SDS011;12670;53.502;10.252;2022-10-12T05:49:14;11.47;;;3.43;;
16119;SDS011;12670;53.502;10.252;2022-10-12T05:52:18;15.37;;;3.70;;
16119;SDS011;12670;53.502;10.252;2022-10-12T05:55:21;19.90;;;4.80;;
16119;SDS011;12670;53.502;10.252;2022-10-12T05:58:24;12.97;;;3.50;;
16119;SDS011;12670;53.502;10.252;2022-10-12T06:01:26;24.40;;;4.07;;
16119;SDS011;12670;53.502;10.252;2022-10-12T06:04:29;16.07;;;4.13;;
16119;SDS011;12670;53.502;10.252;2022-10-12T06:07:33;10.30;;;3.30;;
16119;SDS011;12670;53.502;10.252;2022-10-12T06:10:36;19.00;;;3.40;;
16119;SDS011;12670;53.502;10.252;2022-10-12T06:13:38;10.87;;;3.03;;
16119;SDS011;12670;53.502;10.252;2022-10-12T06:16:41;10.70;;;3.33;;
16119;SDS011;12670;53.502;10.252;2022-10-12T06:19:43;13.57;;;3.30;;
16119;SDS011;12670;53.502;10.252;2022-10-12T06:22:47;11.47;;;3.03;;
16119;SDS011;12670;53.502;10.252;2022-10-12T06:25:50;12.80;;;2.90;;
16119;SDS011;12670;53.502;10.252;2022-10-12T06:28:53;19.47;;;3.47;;
16119;SDS011;12670;53.502;10.252;2022-10-12T06:31:56;14.27;;;3.50;;
16119;SDS011;12670;53.502;10.252;2022-10-12T06:34:58;16.57;;;3.10;;
16119;SDS011;12670;53.502;10.252;2022-10-12T06:38:02;22.27;;;3.87;;
16119;SDS011;12670;53.502;10.252;2022-10-12T06:41:04;10.20;;;3.30;;
16119;SDS011;12670;53.502;10.252;2022-10-12T06:44:07;11.70;;;3.60;;
16119;SDS011;12670;53.502;10.252;2022-10-12T06:47:10;12.13;;;3.70;;
16119;SDS011;12670;53.502;10.252;2022-10-12T06:50:12;18.77;;;4.30;;
16119;SDS011;12670;53.502;10.252;2022-10-12T06:53:16;14.47;;;3.80;;
16119;SDS011;12670;53.502;10.252;2022-10-12T06:56:19;13.93;;;3.67;;
16119;SDS011;12670;53.502;10.252;2022-10-12T06:59:22;14.90;;;3.63;;
16119;SDS011;12670;53.502;10.252;2022-10-12T07:02:25;16.27;;;3.97;;
16119;SDS011;12670;53.502;10.252;2022-10-12T07:05:27;17.77;;;3.97;;
16119;SDS011;12670;53.502;10.252;2022-10-12T07:08:31;15.40;;;3.70;;
16119;SDS011;12670;53.502;10.252;2022-10-12T07:11:34;20.80;;;3.77;;
16119;SDS011;12670;53.502;10.252;2022-10-12T07:14:36;21.37;;;4.20;;
16119;SDS011;12670;53.502;10.252;2022-10-12T07:17:39;19.97;;;4.53;;
16119;SDS011;12670;53.502;10.252;2022-10-12T07:20:41;12.40;;;3.73;;
16119;SDS011;12670;53.502;10.252;2022-10-12T07:23:45;21.70;;;4.47;;
16119;SDS011;12670;53.502;10.252;2022-10-12T07:26:48;17.70;;;4.10;;
16119;SDS011;12670;53.502;10.252;2022-10-12T07:29:50;14.40;;;3.47;;
16119;SDS011;12670;53.502;10.252;2022-10-12T07:32:53;15.87;;;4.23;;
16119;SDS011;12670;53.502;10.252;2022-10-12T07:35:56;24.93;;;3.80;;
16119;SDS011;12670;53.502;10.252;2022-10-12T07:39:15;13.17;;;3.43;;
16119;SDS011;12670;53.502;10.252;2022-10-12T07:42:17;12.07;;;3.10;;
16119;SDS011;12670;53.502;10.252;2022-10-12T07:45:20;25.87;;;3.70;;
16119;SDS011;12670;53.502;10.252;2022-10-12T07:48:22;19.83;;;3.37;;
16119;SDS011;12670;53.502;10.252;2022-10-12T07:51:25;21.33;;;3.47;;
16119;SDS011;12670;53.502;10.252;2022-10-12T07:54:29;13.27;;;3.50;;
16119;SDS011;12670;53.502;10.252;2022-10-12T07:57:32;13.60;;;3.60;;
16119;SDS011;12670;53.502;10.252;2022-10-12T08:00:35;19.37;;;3.50;;
16119;SDS011;12670;53.502;10.252;2022-10-12T08:03:38;15.07;;;3.40;;
16119;SDS011;12670;53.502;10.252;2022-10-12T08:06:41;19.70;;;3.93;;
16119;SDS011;12670;53.502;10.252;2022-10-12T08:09:46;9.27;;;3.17;;
16119;SDS011;12670;53.502;10.252;2022-10-12T08:12:49;21.50;;;4.00;;
16119;SDS011;12670;53.502;10.252;2022-10-12T08:15:52;14.93;;;3.43;;
16119;SDS011;12670;53.502;10.252;2022-10-12T08:18:55;19.07;;;2.70;;
16119;SDS011;12670;53.502;10.252;2022-10-12T08:21:57;13.23;;;3.00;;
16119;SDS011;12670;53.502;10.252;2022-10-12T08:25:01;20.60;;;2.90;;
16119;SDS011;12670;53.502;10.252;2022-10-12T08:28:04;14.07;;;3.33;;
16119;SDS011;12670;53.502;10.252;2022-10-12T08:31:07;13.67;;;3.23;;
16119;SDS011;12670;53.502;10.252;2022-10-12T08:34:11;17.27;;;2.80;;
16119;SDS011;12670;53.502;10.252;2022-10-12T08:37:13;17.17;;;3.43;;
16119;SDS011;12670;53.502;10.252;2022-10-12T08:40:18;13.87;;;2.63;;
16119;SDS011;12670;53.502;10.252;2022-10-12T08:43:34;12.10;;;2.50;;
16119;SDS011;12670;53.502;10.252;2022-10-12T08:46:47;14.13;;;2.40;;
16119;SDS011;12670;53.502;10.252;2022-10-12T08:49:51;18.60;;;2.77;;
16119;SDS011;12670;53.502;10.252;2022-10-12T08:52:57;17.00;;;2.97;;
16119;SDS011;12670;53.502;10.252;2022-10-12T08:56:07;13.57;;;2.73;;
16119;SDS011;12670;53.502;10.252;2022-10-12T08:59:10;12.00;;;2.47;;
16119;SDS011;12670;53.502;10.252;2022-10-12T09:02:21;18.00;;;2.80;;
16119;SDS011;12670;53.502;10.252;2022-10-12T09:05:36;13.80;;;2.57;;
16119;SDS011;12670;53.502;10.252;2022-10-12T09:08:52;13.27;;;2.57;;
16119;SDS011;12670;53.502;10.252;2022-10-12T09:12:11;15.20;;;2.53;;
16119;SDS011;12670;53.502;10.252;2022-10-12T09:15:25;17.97;;;2.50;;
16119;SDS011;12670;53.502;10.252;2022-10-12T09:18:33;13.87;;;2.70;;
16119;SDS011;12670;53.502;10.252;2022-10-12T09:21:41;16.37;;;2.93;;
16119;SDS011;12670;53.502;10.252;2022-10-12T09:24:47;12.97;;;2.93;;
16119;SDS011;12670;53.502;10.252;2022-10-12T09:27:52;15.90;;;3.00;;
16119;SDS011;12670;53.502;10.252;2022-10-12T09:31:01;19.53;;;2.60;;
16119;SDS011;12670;53.502;10.252;2022-10-12T09:34:12;12.43;;;3.07;;
16119;SDS011;12670;53.502;10.252;2022-10-12T09:37:20;18.17;;;3.10;;
16119;SDS011;12670;53.502;10.252;2022-10-12T09:40:26;12.77;;;3.00;;
16119;SDS011;12670;53.502;10.252;2022-10-12T09:43:33;10.77;;;2.90;;
16119;SDS011;12670;53.502;10.252;2022-10-12T09:46:37;19.80;;;3.50;;
16119;SDS011;12670;53.502;10.252;2022-10-12T09:49:44;16.90;;;2.77;;
16119;SDS011;12670;53.502;10.252;2022-10-12T09:52:48;11.83;;;2.50;;
16119;SDS011;12670;53.502;10.252;2022-10-12T09:55:55;12.30;;;2.60;;
16119;SDS011;12670;53.502;10.252;2022-10-12T09:59:01;15.23;;;3.00;;
16119;SDS011;12670;53.502;10.252;2022-10-12T10:02:12;13.20;;;2.67;;
16119;SDS011;12670;53.502;10.252;2022-10-12T10:05:22;14.10;;;2.50;;
16119;SDS011;12670;53.502;10.252;2022-10-12T10:08:25;21.17;;;3.00;;
16119;SDS011;12670;53.502;10.252;2022-10-12T10:11:28;9.07;;;2.17;;
16119;SDS011;12670;53.502;10.252;2022-10-12T10:14:33;12.43;;;2.40;;
16119;SDS011;12670;53.502;10.252;2022-10-12T10:17:37;16.80;;;2.70;;
16119;SDS011;12670;53.502;10.252;2022-10-12T10:20:42;11.97;;;2.70;;
16119;SDS011;12670;53.502;10.252;2022-10-12T10:23:52;9.80;;;2.33;;
16119;SDS011;12670;53.502;10.252;2022-10-12T10:26:57;8.98;;;2.10;;
16119;SDS011;12670;53.502;10.252;2022-10-12T10:30:19;12.43;;;2.33;;
16119;SDS011;12670;53.502;10.252;2022-10-12T10:33:32;12.10;;;2.38;;
16119;SDS011;12670;53.502;10.252;2022-10-12T10:36:36;11.65;;;2.65;;
16119;SDS011;12670;53.502;10.252;2022-10-12T10:39:43;15.13;;;2.15;;
16119;SDS011;12670;53.502;10.252;2022-10-12T10:42:48;13.98;;;2.80;;
16119;SDS011;12670;53.502;10.252;2022-10-12T10:45:54;11.50;;;2.15;;
16119;SDS011;12670;53.502;10.252;2022-10-12T10:49:00;16.55;;;2.70;;
16119;SDS011;12670;53.502;10.252;2022-10-12T10:52:07;8.88;;;2.20;;
16119;SDS011;12670;53.502;10.252;2022-10-12T10:55:21;8.98;;;1.95;;
16119;SDS011;12670;53.502;10.252;2022-10-12T10:58:29;7.35;;;2.15;;
16119;SDS011;12670;53.502;10.252;2022-10-12T11:01:38;10.95;;;1.92;;
16119;SDS011;12670;53.502;10.252;2022-10-12T11:04:52;12.30;;;2.35;;
16119;SDS011;12670;53.502;10.252;2022-10-12T11:08:03;9.63;;;2.00;;
16119;SDS011;12670;53.502;10.252;2022-10-12T11:11:12;9.90;;;2.10;;
16119;SDS011;12670;53.502;10.252;2022-10-12T11:14:18;11.30;;;2.00;;
16119;SDS011;12670;53.502;10.252;2022-10-12T11:17:25;7.95;;;1.55;;
16119;SDS011;12670;53.502;10.252;2022-10-12T11:20:44;9.70;;;2.08;;
16119;SDS011;12670;53.502;10.252;2022-10-12T11:23:52;10.18;;;2.15;;
16119;SDS011;12670;53.502;10.252;2022-10-12T11:27:00;9.00;;;1.48;;
16119;SDS011;12670;53.502;10.252;2022-10-12T11:30:11;12.75;;;2.10;;
16119;SDS011;12670;53.502;10.252;2022-10-12T11:33:18;9.77;;;2.03;;
16119;SDS011;12670;53.502;10.252;2022-10-12T11:36:25;11.15;;;1.70;;
16119;SDS011;12670;53.502;10.252;2022-10-12T11:39:31;9.27;;;2.15;;
16119;SDS011;12670;53.502;10.252;2022-10-12T11:42:37;7.10;;;1.60;;
16119;SDS011;12670;53.502;10.252;2022-10-12T11:45:44;9.20;;;1.92;;
16119;SDS011;12670;53.502;10.252;2022-10-12T11:48:52;12.05;;;1.80;;
16119;SDS011;12670;53.502;10.252;2022-10-12T11:52:02;15.88;;;2.13;;
16119;SDS011;12670;53.502;10.252;2022-10-12T11:55:31;11.10;;;2.10;;
16119;SDS011;12670;53.502;10.252;2022-10-12T11:58:43;12.75;;;2.28;;
16119;SDS011;12670;53.502;10.252;2022-10-12T12:02:07;8.43;;;2.13;;
16119;SDS011;12670;53.502;10.252;2022-10-12T12:05:17;6.97;;;1.70;;
16119;SDS011;12670;53.502;10.252;2022-10-12T12:08:20;7.50;;;1.83;;
16119;SDS011;12670;53.502;10.252;2022-10-12T12:11:24;8.13;;;2.00;;
16119;SDS011;12670;53.502;10.252;2022-10-12T12:14:44;13.43;;;1.90;;
16119;SDS011;12670;53.502;10.252;2022-10-12T12:21:15;6.35;;;1.60;;
16119;SDS011;12670;53.502;10.252;2022-10-12T12:24:18;7.63;;;1.80;;
16119;SDS011;12670;53.502;10.252;2022-10-12T12:27:21;7.53;;;1.80;;
16119;SDS011;12670;53.502;10.252;2022-10-12T12:30:34;10.27;;;1.85;;
16119;SDS011;12670;53.502;10.252;2022-10-12T12:33:39;8.48;;;1.50;;
16119;SDS011;12670;53.502;10.252;2022-10-12T12:36:47;13.98;;;2.22;;
16119;SDS011;12670;53.502;10.252;2022-10-12T12:39:53;7.00;;;1.70;;
16119;SDS011;12670;53.502;10.252;2022-10-12T12:50:38;8.18;;;1.90;;
16119;SDS011;12670;53.502;10.252;2022-10-12T12:53:44;7.25;;;1.73;;
16119;SDS011;12670;53.502;10.252;2022-10-12T12:57:10;8.57;;;1.67;;
16119;SDS011;12670;53.502;10.252;2022-10-12T13:00:26;10.50;;;2.17;;
16119;SDS011;12670;53.502;10.252;2022-10-12T13:03:53;14.30;;;2.13;;
16119;SDS011;12670;53.502;10.252;2022-10-12T13:07:14;9.05;;;1.77;;
16119;SDS011;12670;53.502;10.252;2022-10-12T13:10:39;9.32;;;1.90;;
16119;SDS011;12670;53.502;10.252;2022-10-12T13:13:54;10.57;;;1.90;;
16119;SDS011;12670;53.502;10.252;2022-10-12T13:17:15;8.45;;;1.88;;
16119;SDS011;12670;53.502;10.252;2022-10-12T13:20:36;10.57;;;2.15;;
16119;SDS011;12670;53.502;10.252;2022-10-12T13:23:40;13.13;;;1.70;;
16119;SDS011;12670;53.502;10.252;2022-10-12T13:26:47;8.13;;;1.75;;
16119;SDS011;12670;53.502;10.252;2022-10-12T13:29:53;16.40;;;2.08;;
16119;SDS011;12670;53.502;10.252;2022-10-12T13:33:00;7.10;;;2.10;;
16119;SDS011;12670;53.502;10.252;2022-10-12T13:36:21;6.72;;;1.65;;
16119;SDS011;12670;53.502;10.252;2022-10-12T13:39:26;9.70;;;1.92;;
16119;SDS011;12670;53.502;10.252;2022-10-12T13:42:32;9.25;;;2.20;;
16119;SDS011;12670;53.502;10.252;2022-10-12T13:45:42;11.13;;;2.35;;
16119;SDS011;12670;53.502;10.252;2022-10-12T13:48:47;8.95;;;1.80;;
16119;SDS011;12670;53.502;10.252;2022-10-12T13:52:15;9.80;;;1.85;;
16119;SDS011;12670;53.502;10.252;2022-10-12T13:55:23;11.00;;;1.90;;
16119;SDS011;12670;53.502;10.252;2022-10-12T13:58:30;11.63;;;2.00;;
16119;SDS011;12670;53.502;10.252;2022-10-12T14:01:45;11.17;;;1.80;;
16119;SDS011;12670;53.502;10.252;2022-10-12T14:04:51;8.53;;;1.90;;
16119;SDS011;12670;53.502;10.252;2022-10-12T14:07:55;17.53;;;2.37;;
16119;SDS011;12670;53.502;10.252;2022-10-12T14:11:00;9.23;;;2.07;;
16119;SDS011;12670;53.502;10.252;2022-10-12T14:14:08;12.73;;;2.13;;
16119;SDS011;12670;53.502;10.252;2022-10-12T14:17:20;11.40;;;1.80;;
16119;SDS011;12670;53.502;10.252;2022-10-12T14:20:27;15.07;;;2.00;;
16119;SDS011;12670;53.502;10.252;2022-10-12T14:23:31;14.00;;;3.90;;
16119;SDS011;12670;53.502;10.252;2022-10-12T14:26:36;16.60;;;2.67;;
16119;SDS011;12670;53.502;10.252;2022-10-12T14:29:42;9.77;;;2.03;;
16119;SDS011;12670;53.502;10.252;2022-10-12T14:32:46;12.27;;;2.10;;
16119;SDS011;12670;53.502;10.252;2022-10-12T14:35:50;9.70;;;1.97;;
16119;SDS011;12670;53.502;10.252;2022-10-12T14:38:53;17.53;;;2.17;;
16119;SDS011;12670;53.502;10.252;2022-10-12T14:42:02;10.30;;;2.10;;
16119;SDS011;12670;53.502;10.252;2022-10-12T14:45:19;15.73;;;2.77;;
16119;SDS011;12670;53.502;10.252;2022-10-12T14:48:24;15.97;;;2.13;;
16119;SDS011;12670;53.502;10.252;2022-10-12T14:51:26;13.53;;;2.20;;
16119;SDS011;12670;53.502;10.252;2022-10-12T14:54:29;13.17;;;2.10;;
16119;SDS011;12670;53.502;10.252;2022-10-12T14:57:32;10.93;;;2.00;;
16119;SDS011;12670;53.502;10.252;2022-10-12T15:00:36;13.07;;;1.80;;
16119;SDS011;12670;53.502;10.252;2022-10-12T15:03:39;14.87;;;1.80;;
16119;SDS011;12670;53.502;10.252;2022-10-12T15:06:41;16.27;;;2.53;;
16119;SDS011;12670;53.502;10.252;2022-10-12T15:09:51;18.40;;;2.60;;
16119;SDS011;12670;53.502;10.252;2022-10-12T15:12:53;13.10;;;2.00;;
16119;SDS011;12670;53.502;10.252;2022-10-12T15:15:57;13.37;;;1.90;;
16119;SDS011;12670;53.502;10.252;2022-10-12T15:19:02;14.97;;;2.30;;
16119;SDS011;12670;53.502;10.252;2022-10-12T15:22:04;13.97;;;1.93;;
16119;SDS011;12670;53.502;10.252;2022-10-12T15:25:10;15.97;;;2.30;;
16119;SDS011;12670;53.502;10.252;2022-10-12T15:28:18;13.90;;;1.90;;
16119;SDS011;12670;53.502;10.252;2022-10-12T15:31:23;11.03;;;2.20;;
16119;SDS011;12670;53.502;10.252;2022-10-12T15:34:25;9.53;;;2.10;;
16119;SDS011;12670;53.502;10.252;2022-10-12T15:37:28;13.63;;;2.33;;
16119;SDS011;12670;53.502;10.252;2022-10-12T15:40:32;21.00;;;2.63;;
16119;SDS011;12670;53.502;10.252;2022-10-12T15:43:35;14.30;;;2.60;;
16119;SDS011;12670;53.502;10.252;2022-10-12T15:46:43;11.83;;;2.40;;
16119;SDS011;12670;53.502;10.252;2022-10-12T15:49:46;16.97;;;2.80;;
16119;SDS011;12670;53.502;10.252;2022-10-12T15:52:48;16.73;;;2.40;;
16119;SDS011;12670;53.502;10.252;2022-10-12T15:55:52;15.10;;;2.40;;
16119;SDS011;12670;53.502;10.252;2022-10-12T15:58:55;13.60;;;2.17;;
16119;SDS011;12670;53.502;10.252;2022-10-12T16:01:59;12.93;;;2.30;;
16119;SDS011;12670;53.502;10.252;2022-10-12T16:05:02;11.23;;;2.30;;
16119;SDS011;12670;53.502;10.252;2022-10-12T16:08:05;8.33;;;1.90;;
16119;SDS011;12670;53.502;10.252;2022-10-12T16:11:09;15.00;;;2.47;;
16119;SDS011;12670;53.502;10.252;2022-10-12T16:14:13;13.73;;;2.23;;
16119;SDS011;12670;53.502;10.252;2022-10-12T16:17:17;22.80;;;2.23;;
16119;SDS011;12670;53.502;10.252;2022-10-12T16:20:20;15.83;;;2.20;;
16119;SDS011;12670;53.502;10.252;2022-10-12T16:23:25;14.43;;;2.17;;
16119;SDS011;12670;53.502;10.252;2022-10-12T16:26:29;11.40;;;2.00;;
16119;SDS011;12670;53.502;10.252;2022-10-12T16:29:31;16.87;;;2.83;;
16119;SDS011;12670;53.502;10.252;2022-10-12T16:32:35;18.50;;;2.43;;
16119;SDS011;12670;53.502;10.252;2022-10-12T16:35:38;11.63;;;2.07;;
16119;SDS011;12670;53.502;10.252;2022-10-12T16:38:41;8.13;;;2.00;;
16119;SDS011;12670;53.502;10.252;2022-10-12T16:41:44;8.70;;;2.10;;
16119;SDS011;12670;53.502;10.252;2022-10-12T16:44:47;17.53;;;3.30;;
16119;SDS011;12670;53.502;10.252;2022-10-12T16:47:51;15.50;;;2.40;;
16119;SDS011;12670;53.502;10.252;2022-10-12T16:50:54;19.80;;;2.40;;
16119;SDS011;12670;53.502;10.252;2022-10-12T16:53:56;15.63;;;2.70;;
16119;SDS011;12670;53.502;10.252;2022-10-12T16:56:59;14.30;;;3.23;;
16119;SDS011;12670;53.502;10.252;2022-10-12T17:00:02;15.93;;;3.30;;
16119;SDS011;12670;53.502;10.252;2022-10-12T17:03:06;21.33;;;3.07;;
16119;SDS011;12670;53.502;10.252;2022-10-12T17:06:09;19.17;;;3.23;;
16119;SDS011;12670;53.502;10.252;2022-10-12T17:09:12;16.23;;;3.50;;
16119;SDS011;12670;53.502;10.252;2022-10-12T17:12:15;23.27;;;3.13;;
16119;SDS011;12670;53.502;10.252;2022-10-12T17:15:18;10.07;;;3.00;;
16119;SDS011;12670;53.502;10.252;2022-10-12T17:18:22;17.80;;;3.40;;
16119;SDS011;12670;53.502;10.252;2022-10-12T17:21:25;31.60;;;4.10;;
16119;SDS011;12670;53.502;10.252;2022-10-12T17:24:29;33.30;;;4.50;;
16119;SDS011;12670;53.502;10.252;2022-10-12T17:27:33;30.87;;;4.77;;
16119;SDS011;12670;53.502;10.252;2022-10-12T17:30:35;21.90;;;4.30;;
16119;SDS011;12670;53.502;10.252;2022-10-12T17:33:40;20.10;;;4.50;;
16119;SDS011;12670;53.502;10.252;2022-10-12T17:36:42;17.13;;;3.83;;
16119;SDS011;12670;53.502;10.252;2022-10-12T17:39:45;15.07;;;4.20;;
16119;SDS011;12670;53.502;10.252;2022-10-12T17:42:48;16.07;;;4.63;;
16119;SDS011;12670;53.502;10.252;2022-10-12T17:45:50;19.63;;;5.53;;
16119;SDS011;12670;53.502;10.252;2022-10-12T17:48:55;26.93;;;6.57;;
16119;SDS011;12670;53.502;10.252;2022-10-12T17:51:59;22.77;;;7.13;;
16119;SDS011;12670;53.502;10.252;2022-10-12T17:55:02;17.83;;;5.93;;
16119;SDS011;12670;53.502;10.252;2022-10-12T17:58:04;21.63;;;5.93;;
16119;SDS011;12670;53.502;10.252;2022-10-12T18:01:08;15.80;;;6.00;;
16119;SDS011;12670;53.502;10.252;2022-10-12T18:04:14;21.27;;;7.07;;
16119;SDS011;12670;53.502;10.252;2022-10-12T18:07:16;41.17;;;6.83;;
16119;SDS011;12670;53.502;10.252;2022-10-12T18:10:19;21.93;;;5.87;;
16119;SDS011;12670;53.502;10.252;2022-10-12T18:13:28;26.03;;;5.00;;
16119;SDS011;12670;53.502;10.252;2022-10-12T18:16:32;21.93;;;5.40;;
16119;SDS011;12670;53.502;10.252;2022-10-12T18:19:36;15.13;;;4.77;;
16119;SDS011;12670;53.502;10.252;2022-10-12T18:22:38;16.00;;;4.33;;
16119;SDS011;12670;53.502;10.252;2022-10-12T18:25:41;21.20;;;4.30;;